Portada
METAR-TAF:

METAR-TAF

Aeropuertos :

La Palma, España

Aeropuerto de La Palma

latitud: 28-37N, longitud: 017-45W, altitud: 29 m

Observación

El informe se hizo hace 25 minutos, a las 22:30 UTC
Viento 13 kt del norte
Temperatura 23°C
Humedad 83%
Presión 1017 hPa
Visibilidad 10 km o más

METAR: GCLA 202230Z AUTO 01013KT 9999 NCD 23/20 Q1017

Hora: 23:55 (22:55 UTC)

Pronóstico

El informe se hizo hace 2 horas y 55 minutos, a las 20:00 UTC
Pronóstico válido del 20 a las 21 UTC al 21 a las 21 UTC
Viento 5 kt del norte-noroeste
Visibilidad 10 km o más
Escasas nubes a una altura de 2000 ft
Probabilidad 30% :
Temporalmente
del 20 a las 21 UTC al 20 a las 23 UTC
Escasas nubes a una altura de 6000 ft, Cumulus congestus.

TAF: GCLA 202000Z 2021/2121 34005KT 9999 FEW020 TX29/2113Z TN23/2106Z PROB30 TEMPO 2021/2023 FEW060TCU

Observaciones y pronósticos meteorológicos de más de 4000 aeropuertos (mensajes METAR y TAF).

Los puntos amarillos y rojos representan las estaciones disponibles.

Ponga el ratón en el punto deseado para ver el nombre de la estación.

Haga clic para ver las observaciones y los pronósticos meteorológicos.

Para cambiar el mapa : haga clic en los botones verdes con una cruz de color negro para hacer un zoom, en el botón verde con un guión para alejar o en las flechas verdes para mapas adyacentes.


METAR-TAF: